sensor_id;sensor_type;location;lat;lon;timestamp;pressure;altitude;pressure_sealevel;temperature;humidity
7524;BME280;3803;51.666;7.630;2023-01-27T00:00:09;101742.31;;;6.14;62.67
7524;BME280;3803;51.666;7.630;2023-01-27T00:00:35;101746.41;;;6.10;62.54
7524;BME280;3803;51.666;7.630;2023-01-27T00:00:56;101735.41;;;6.14;62.66
7524;BME280;3803;51.666;7.630;2023-01-27T00:01:17;101743.03;;;6.11;62.65
7524;BME280;3803;51.666;7.630;2023-01-27T00:01:56;101741.38;;;5.98;63.10
7524;BME280;3803;51.666;7.630;2023-01-27T00:02:17;101745.03;;;6.02;62.90
7524;BME280;3803;51.666;7.630;2023-01-27T00:02:38;101741.53;;;6.01;63.03
7524;BME280;3803;51.666;7.630;2023-01-27T00:02:59;101762.25;;;6.15;62.96
7524;BME280;3803;51.666;7.630;2023-01-27T00:03:20;101747.41;;;6.12;62.64
7524;BME280;3803;51.666;7.630;2023-01-27T00:03:40;101745.31;;;6.07;62.90
7524;BME280;3803;51.666;7.630;2023-01-27T00:04:01;101746.31;;;6.09;62.57
7524;BME280;3803;51.666;7.630;2023-01-27T00:04:23;101744.09;;;6.15;62.41
7524;BME280;3803;51.666;7.630;2023-01-27T00:04:44;101748.28;;;6.13;62.46
7524;BME280;3803;51.666;7.630;2023-01-27T00:05:05;101749.88;;;6.11;62.71
7524;BME280;3803;51.666;7.630;2023-01-27T00:05:25;101738.25;;;6.04;62.94
7524;BME280;3803;51.666;7.630;2023-01-27T00:05:46;101749.00;;;6.10;62.61
7524;BME280;3803;51.666;7.630;2023-01-27T00:06:07;101747.28;;;6.11;62.53
7524;BME280;3803;51.666;7.630;2023-01-27T00:06:31;101747.50;;;6.14;62.83
7524;BME280;3803;51.666;7.630;2023-01-27T00:06:51;101738.72;;;6.12;62.57
7524;BME280;3803;51.666;7.630;2023-01-27T00:07:12;101749.28;;;6.15;62.66
7524;BME280;3803;51.666;7.630;2023-01-27T00:07:33;101753.56;;;6.14;62.76
7524;BME280;3803;51.666;7.630;2023-01-27T00:07:53;101731.66;;;6.09;62.19
7524;BME280;3803;51.666;7.630;2023-01-27T00:08:17;101756.69;;;6.09;62.92
7524;BME280;3803;51.666;7.630;2023-01-27T00:08:38;101742.81;;;6.08;62.80
7524;BME280;3803;51.666;7.630;2023-01-27T00:08:59;101740.50;;;6.13;62.62
7524;BME280;3803;51.666;7.630;2023-01-27T00:09:19;101743.03;;;6.11;62.25
7524;BME280;3803;51.666;7.630;2023-01-27T00:09:40;101737.13;;;6.14;62.59
7524;BME280;3803;51.666;7.630;2023-01-27T00:10:01;101753.13;;;6.22;62.47
7524;BME280;3803;51.666;7.630;2023-01-27T00:10:23;101754.13;;;6.24;62.19
7524;BME280;3803;51.666;7.630;2023-01-27T00:10:44;101745.09;;;6.17;62.54
7524;BME280;3803;51.666;7.630;2023-01-27T00:11:04;101746.47;;;6.12;62.37
7524;BME280;3803;51.666;7.630;2023-01-27T00:11:43;101745.78;;;6.14;62.68
7524;BME280;3803;51.666;7.630;2023-01-27T00:12:24;101751.94;;;6.16;62.56
7524;BME280;3803;51.666;7.630;2023-01-27T00:13:03;101742.66;;;6.20;62.22
7524;BME280;3803;51.666;7.630;2023-01-27T00:13:43;101747.84;;;6.20;62.62
7524;BME280;3803;51.666;7.630;2023-01-27T00:14:22;101757.44;;;6.21;62.14
7524;BME280;3803;51.666;7.630;2023-01-27T00:14:56;101750.44;;;6.20;62.06
7524;BME280;3803;51.666;7.630;2023-01-27T00:15:16;101747.69;;;6.17;62.17
7524;BME280;3803;51.666;7.630;2023-01-27T00:15:37;101751.94;;;6.16;62.29
7524;BME280;3803;51.666;7.630;2023-01-27T00:15:58;101758.63;;;6.13;61.98
7524;BME280;3803;51.666;7.630;2023-01-27T00:16:19;101744.63;;;6.09;62.22
7524;BME280;3803;51.666;7.630;2023-01-27T00:16:40;101750.88;;;6.13;62.35
7524;BME280;3803;51.666;7.630;2023-01-27T00:17:01;101761.81;;;6.22;61.97
7524;BME280;3803;51.666;7.630;2023-01-27T00:17:21;101758.03;;;6.17;62.66
7524;BME280;3803;51.666;7.630;2023-01-27T00:17:42;101762.00;;;6.25;62.13
7524;BME280;3803;51.666;7.630;2023-01-27T00:18:02;101771.47;;;6.25;62.31
7524;BME280;3803;51.666;7.630;2023-01-27T00:18:23;101770.41;;;6.21;62.26
7524;BME280;3803;51.666;7.630;2023-01-27T00:18:44;101770.59;;;6.24;62.22
7524;BME280;3803;51.666;7.630;2023-01-27T00:19:05;101765.03;;;6.18;62.12
7524;BME280;3803;51.666;7.630;2023-01-27T00:19:26;101756.03;;;6.13;62.20
7524;BME280;3803;51.666;7.630;2023-01-27T00:19:46;101769.41;;;6.19;62.16
7524;BME280;3803;51.666;7.630;2023-01-27T00:20:09;101762.16;;;6.13;62.45
7524;BME280;3803;51.666;7.630;2023-01-27T00:20:30;101763.06;;;6.14;62.12
7524;BME280;3803;51.666;7.630;2023-01-27T00:21:09;101756.03;;;6.13;62.26
7524;BME280;3803;51.666;7.630;2023-01-27T00:21:48;101761.63;;;6.19;62.27
7524;BME280;3803;51.666;7.630;2023-01-27T00:22:26;101764.13;;;6.18;62.00
7524;BME280;3803;51.666;7.630;2023-01-27T00:23:11;101768.22;;;6.14;62.06
7524;BME280;3803;51.666;7.630;2023-01-27T00:23:52;101764.72;;;6.13;62.53
7524;BME280;3803;51.666;7.630;2023-01-27T00:24:31;101765.22;;;6.21;62.21
7524;BME280;3803;51.666;7.630;2023-01-27T00:24:57;101763.22;;;6.17;62.03
7524;BME280;3803;51.666;7.630;2023-01-27T00:25:18;101771.28;;;6.22;61.98
7524;BME280;3803;51.666;7.630;2023-01-27T00:25:39;101761.22;;;6.13;62.23
7524;BME280;3803;51.666;7.630;2023-01-27T00:26:01;101763.22;;;6.17;62.27
7524;BME280;3803;51.666;7.630;2023-01-27T00:26:25;101767.44;;;6.15;62.64
7524;BME280;3803;51.666;7.630;2023-01-27T00:26:46;101761.22;;;6.13;62.27
7524;BME280;3803;51.666;7.630;2023-01-27T00:27:08;101758.56;;;6.11;62.01
7524;BME280;3803;51.666;7.630;2023-01-27T00:27:28;101761.22;;;6.13;62.00
7524;BME280;3803;51.666;7.630;2023-01-27T00:27:50;101768.94;;;6.11;62.09
7524;BME280;3803;51.666;7.630;2023-01-27T00:28:11;101768.31;;;6.15;61.93
7524;BME280;3803;51.666;7.630;2023-01-27T00:28:43;101769.13;;;6.14;62.29
7524;BME280;3803;51.666;7.630;2023-01-27T00:29:05;101765.81;;;6.17;62.13
7524;BME280;3803;51.666;7.630;2023-01-27T00:29:26;101781.56;;;6.20;62.09
7524;BME280;3803;51.666;7.630;2023-01-27T00:29:46;101763.06;;;6.14;61.95
7524;BME280;3803;51.666;7.630;2023-01-27T00:30:08;101768.41;;;6.17;61.63
7524;BME280;3803;51.666;7.630;2023-01-27T00:30:29;101765.81;;;6.17;61.89
7524;BME280;3803;51.666;7.630;2023-01-27T00:30:50;101773.59;;;6.17;61.67
7524;BME280;3803;51.666;7.630;2023-01-27T00:31:13;101777.09;;;6.18;62.08
7524;BME280;3803;51.666;7.630;2023-01-27T00:31:52;101770.03;;;6.15;61.87
7524;BME280;3803;51.666;7.630;2023-01-27T00:32:31;101774.78;;;6.22;61.88
7524;BME280;3803;51.666;7.630;2023-01-27T00:33:11;101776.09;;;6.15;62.05
7524;BME280;3803;51.666;7.630;2023-01-27T00:33:47;101780.19;;;6.12;62.05
7524;BME280;3803;51.666;7.630;2023-01-27T00:34:10;101772.81;;;6.05;61.99
7524;BME280;3803;51.666;7.630;2023-01-27T00:34:32;101773.13;;;6.09;61.98
7524;BME280;3803;51.666;7.630;2023-01-27T00:34:53;101776.59;;;6.10;62.02
7524;BME280;3803;51.666;7.630;2023-01-27T00:35:14;101787.97;;;6.12;61.91
7524;BME280;3803;51.666;7.630;2023-01-27T00:35:35;101781.59;;;6.07;61.92
7524;BME280;3803;51.666;7.630;2023-01-27T00:36:01;101776.13;;;6.02;61.84
7524;BME280;3803;51.666;7.630;2023-01-27T00:36:23;101779.72;;;6.04;61.97
7524;BME280;3803;51.666;7.630;2023-01-27T00:36:43;101788.38;;;6.05;61.90
7524;BME280;3803;51.666;7.630;2023-01-27T00:37:04;101781.78;;;6.10;62.04
7524;BME280;3803;51.666;7.630;2023-01-27T00:37:26;101791.75;;;6.17;62.13
7524;BME280;3803;51.666;7.630;2023-01-27T00:37:47;101779.19;;;6.10;62.04
7524;BME280;3803;51.666;7.630;2023-01-27T00:38:08;101787.97;;;6.12;61.40
7524;BME280;3803;51.666;7.630;2023-01-27T00:38:29;101778.31;;;6.09;61.70
7524;BME280;3803;51.666;7.630;2023-01-27T00:38:50;101788.19;;;6.01;61.81
7524;BME280;3803;51.666;7.630;2023-01-27T00:39:11;101789.09;;;6.02;61.71
7524;BME280;3803;51.666;7.630;2023-01-27T00:39:32;101776.22;;;6.03;61.88
7524;BME280;3803;51.666;7.630;2023-01-27T00:39:52;101785.78;;;6.05;61.81
7524;BME280;3803;51.666;7.630;2023-01-27T00:40:15;101773.25;;;5.97;61.76
7524;BME280;3803;51.666;7.630;2023-01-27T00:40:36;101783.22;;;5.91;62.06
7524;BME280;3803;51.666;7.630;2023-01-27T00:40:56;101787.59;;;5.92;62.18
7524;BME280;3803;51.666;7.630;2023-01-27T00:41:39;101782.94;;;5.86;62.41
7524;BME280;3803;51.666;7.630;2023-01-27T00:42:00;101795.28;;;5.91;62.39
7524;BME280;3803;51.666;7.630;2023-01-27T00:42:20;101790.72;;;5.86;62.17
7524;BME280;3803;51.666;7.630;2023-01-27T00:42:43;101782.44;;;5.79;62.36
7524;BME280;3803;51.666;7.630;2023-01-27T00:43:04;101786.69;;;5.92;62.48
7524;BME280;3803;51.666;7.630;2023-01-27T00:43:24;101787.78;;;5.95;62.44
7524;BME280;3803;51.666;7.630;2023-01-27T00:43:49;101782.81;;;5.98;62.10
7524;BME280;3803;51.666;7.630;2023-01-27T00:44:10;101784.41;;;5.96;62.05
7524;BME280;3803;51.666;7.630;2023-01-27T00:44:33;101780.22;;;5.98;62.20
7524;BME280;3803;51.666;7.630;2023-01-27T00:44:53;101788.38;;;6.05;61.77
7524;BME280;3803;51.666;7.630;2023-01-27T00:45:34;101797.75;;;6.02;62.12
7524;BME280;3803;51.666;7.630;2023-01-27T00:46:12;101775.47;;;5.91;61.97
7524;BME280;3803;51.666;7.630;2023-01-27T00:46:34;101796.75;;;6.00;62.01
7524;BME280;3803;51.666;7.630;2023-01-27T00:46:54;101784.41;;;5.96;62.15
7524;BME280;3803;51.666;7.630;2023-01-27T00:47:15;101786.09;;;5.96;61.96
7524;BME280;3803;51.666;7.630;2023-01-27T00:47:36;101797.63;;;6.01;61.92
7524;BME280;3803;51.666;7.630;2023-01-27T00:47:56;101789.78;;;5.99;61.95
7524;BME280;3803;51.666;7.630;2023-01-27T00:48:18;101784.41;;;5.96;61.71
7524;BME280;3803;51.666;7.630;2023-01-27T00:48:39;101785.31;;;5.97;61.81
7524;BME280;3803;51.666;7.630;2023-01-27T00:48:59;101791.41;;;5.97;62.04
7524;BME280;3803;51.666;7.630;2023-01-27T00:49:20;101782.53;;;5.94;62.04
7524;BME280;3803;51.666;7.630;2023-01-27T00:49:41;101790.72;;;5.86;62.05
7524;BME280;3803;51.666;7.630;2023-01-27T00:50:02;101784.50;;;5.84;62.10
7524;BME280;3803;51.666;7.630;2023-01-27T00:50:23;101776.84;;;5.86;62.30
7524;BME280;3803;51.666;7.630;2023-01-27T00:50:44;101783.81;;;5.87;61.97
7524;BME280;3803;51.666;7.630;2023-01-27T00:51:04;101778.44;;;5.84;62.19
7524;BME280;3803;51.666;7.630;2023-01-27T00:51:25;101780.25;;;5.85;62.13
7524;BME280;3803;51.666;7.630;2023-01-27T00:51:46;101785.81;;;5.91;62.09
7524;BME280;3803;51.666;7.630;2023-01-27T00:52:07;101782.44;;;5.92;61.96
7524;BME280;3803;51.666;7.630;2023-01-27T00:52:28;101783.22;;;5.91;61.57
7524;BME280;3803;51.666;7.630;2023-01-27T00:52:49;101773.47;;;5.87;62.05
7524;BME280;3803;51.666;7.630;2023-01-27T00:53:12;101787.41;;;5.89;62.31
7524;BME280;3803;51.666;7.630;2023-01-27T00:53:33;101776.66;;;5.83;61.92
7524;BME280;3803;51.666;7.630;2023-01-27T00:53:53;101787.59;;;5.92;62.12
7524;BME280;3803;51.666;7.630;2023-01-27T00:54:14;101781.22;;;5.87;62.08
7524;BME280;3803;51.666;7.630;2023-01-27T00:54:34;101782.03;;;5.86;61.95
7524;BME280;3803;51.666;7.630;2023-01-27T00:54:57;101778.44;;;5.84;62.17
7524;BME280;3803;51.666;7.630;2023-01-27T00:55:18;101800.75;;;5.95;62.07
7524;BME280;3803;51.666;7.630;2023-01-27T00:55:42;101782.03;;;5.86;62.18
7524;BME280;3803;51.666;7.630;2023-01-27T00:56:03;101788.41;;;5.91;62.16
7524;BME280;3803;51.666;7.630;2023-01-27T00:56:24;101786.13;;;5.82;61.80
7524;BME280;3803;51.666;7.630;2023-01-27T00:56:45;101789.22;;;5.90;61.69
7524;BME280;3803;51.666;7.630;2023-01-27T00:57:06;101792.78;;;5.92;62.08
7524;BME280;3803;51.666;7.630;2023-01-27T00:57:27;101781.22;;;5.87;61.98
7524;BME280;3803;51.666;7.630;2023-01-27T00:57:47;101784.44;;;5.83;62.03
7524;BME280;3803;51.666;7.630;2023-01-27T00:58:08;101785.53;;;5.86;61.98
7524;BME280;3803;51.666;7.630;2023-01-27T00:58:29;101790.78;;;5.88;62.25
7524;BME280;3803;51.666;7.630;2023-01-27T00:58:50;101787.41;;;5.89;62.20
7524;BME280;3803;51.666;7.630;2023-01-27T00:59:10;101778.97;;;5.78;62.22
7524;BME280;3803;51.666;7.630;2023-01-27T00:59:31;101781.44;;;5.77;62.11
7524;BME280;3803;51.666;7.630;2023-01-27T00:59:51;101794.00;;;5.84;61.96
7524;BME280;3803;51.666;7.630;2023-01-27T01:00:12;101791.13;;;5.79;62.00
7524;BME280;3803;51.666;7.630;2023-01-27T01:00:34;101795.38;;;5.79;62.17
7524;BME280;3803;51.666;7.630;2023-01-27T01:00:56;101781.97;;;5.71;61.95
7524;BME280;3803;51.666;7.630;2023-01-27T01:01:19;101781.28;;;5.73;62.41
7524;BME280;3803;51.666;7.630;2023-01-27T01:01:41;101799.19;;;5.84;62.12
7524;BME280;3803;51.666;7.630;2023-01-27T01:02:01;101796.19;;;5.78;62.17
7524;BME280;3803;51.666;7.630;2023-01-27T01:02:22;101791.63;;;5.73;62.39
7524;BME280;3803;51.666;7.630;2023-01-27T01:02:42;101784.44;;;5.69;62.43
7524;BME280;3803;51.666;7.630;2023-01-27T01:03:03;101794.00;;;5.70;62.24
7524;BME280;3803;51.666;7.630;2023-01-27T01:03:25;101806.66;;;5.79;62.38
7524;BME280;3803;51.666;7.630;2023-01-27T01:03:45;101784.72;;;5.74;62.19
7524;BME280;3803;51.666;7.630;2023-01-27T01:04:07;101793.31;;;5.73;62.03
7524;BME280;3803;51.666;7.630;2023-01-27T01:04:28;101793.59;;;5.78;62.37
7524;BME280;3803;51.666;7.630;2023-01-27T01:04:48;101802.16;;;5.77;62.28
7524;BME280;3803;51.666;7.630;2023-01-27T01:05:09;101789.81;;;5.72;62.24
7524;BME280;3803;51.666;7.630;2023-01-27T01:05:30;101783.53;;;5.69;61.96
7524;BME280;3803;51.666;7.630;2023-01-27T01:05:50;101797.78;;;5.75;61.88
7524;BME280;3803;51.666;7.630;2023-01-27T01:06:13;101798.78;;;5.78;62.03
7524;BME280;3803;51.666;7.630;2023-01-27T01:06:34;101806.56;;;5.78;62.40
7524;BME280;3803;51.666;7.630;2023-01-27T01:06:55;101797.38;;;5.69;62.22
7524;BME280;3803;51.666;7.630;2023-01-27T01:07:16;101794.63;;;5.66;61.99
7524;BME280;3803;51.666;7.630;2023-01-27T01:07:38;101798.19;;;5.68;62.28
7524;BME280;3803;51.666;7.630;2023-01-27T01:08:01;101803.38;;;5.68;62.38
7524;BME280;3803;51.666;7.630;2023-01-27T01:08:22;101787.44;;;5.62;61.97
7524;BME280;3803;51.666;7.630;2023-01-27T01:08:43;101793.69;;;5.66;62.19
7524;BME280;3803;51.666;7.630;2023-01-27T01:09:04;101797.97;;;5.65;62.08
7524;BME280;3803;51.666;7.630;2023-01-27T01:09:25;101800.69;;;5.67;62.17
7524;BME280;3803;51.666;7.630;2023-01-27T01:09:45;101797.22;;;5.66;62.09
7524;BME280;3803;51.666;7.630;2023-01-27T01:10:07;101806.53;;;5.64;62.35
7524;BME280;3803;51.666;7.630;2023-01-27T01:10:28;101809.25;;;5.66;62.02
7524;BME280;3803;51.666;7.630;2023-01-27T01:10:48;101797.78;;;5.62;62.14
7524;BME280;3803;51.666;7.630;2023-01-27T01:11:14;101808.16;;;5.62;62.22
7524;BME280;3803;51.666;7.630;2023-01-27T01:11:35;101803.88;;;5.63;62.16
7524;BME280;3803;51.666;7.630;2023-01-27T01:11:55;101793.41;;;5.61;61.94
7524;BME280;3803;51.666;7.630;2023-01-27T01:12:16;101807.47;;;5.65;62.33
7524;BME280;3803;51.666;7.630;2023-01-27T01:12:36;101793.81;;;5.54;62.43
7524;BME280;3803;51.666;7.630;2023-01-27T01:12:57;101812.53;;;5.63;62.11
7524;BME280;3803;51.666;7.630;2023-01-27T01:13:18;101798.47;;;5.59;62.06
7524;BME280;3803;51.666;7.630;2023-01-27T01:13:40;101800.09;;;5.57;62.76
7524;BME280;3803;51.666;7.630;2023-01-27T01:14:00;101796.69;;;5.58;62.28
7524;BME280;3803;51.666;7.630;2023-01-27T01:14:21;101802.06;;;5.61;62.63
7524;BME280;3803;51.666;7.630;2023-01-27T01:14:42;101795.88;;;5.59;62.50
7524;BME280;3803;51.666;7.630;2023-01-27T01:15:02;101796.00;;;5.61;62.31
7524;BME280;3803;51.666;7.630;2023-01-27T01:15:23;101797.38;;;5.56;62.66
7524;BME280;3803;51.666;7.630;2023-01-27T01:15:45;101804.34;;;5.57;62.13
7524;BME280;3803;51.666;7.630;2023-01-27T01:16:08;101802.78;;;5.59;62.67
7524;BME280;3803;51.666;7.630;2023-01-27T01:16:29;101797.19;;;5.53;62.35
7524;BME280;3803;51.666;7.630;2023-01-27T01:16:50;101788.44;;;5.51;62.20
7524;BME280;3803;51.666;7.630;2023-01-27T01:17:10;101795.59;;;5.55;62.50
7524;BME280;3803;51.666;7.630;2023-01-27T01:17:31;101799.41;;;5.60;62.20
7524;BME280;3803;51.666;7.630;2023-01-27T01:17:51;101792.13;;;5.54;62.80
7524;BME280;3803;51.666;7.630;2023-01-27T01:18:12;101799.28;;;5.58;62.79
7524;BME280;3803;51.666;7.630;2023-01-27T01:18:34;101793.63;;;5.51;62.58
7524;BME280;3803;51.666;7.630;2023-01-27T01:18:56;101804.56;;;5.60;62.68
7524;BME280;3803;51.666;7.630;2023-01-27T01:19:18;101796.38;;;5.40;62.63
7524;BME280;3803;51.666;7.630;2023-01-27T01:19:39;101789.13;;;5.34;62.66
7524;BME280;3803;51.666;7.630;2023-01-27T01:19:59;101793.91;;;5.42;62.90
7524;BME280;3803;51.666;7.630;2023-01-27T01:20:20;101795.19;;;5.48;62.81
7524;BME280;3803;51.666;7.630;2023-01-27T01:20:42;101784.94;;;5.50;62.47
7524;BME280;3803;51.666;7.630;2023-01-27T01:21:03;101793.41;;;5.47;62.59
7524;BME280;3803;51.666;7.630;2023-01-27T01:21:26;101812.22;;;5.58;62.48
7524;BME280;3803;51.666;7.630;2023-01-27T01:21:46;101792.59;;;5.48;62.22
7524;BME280;3803;51.666;7.630;2023-01-27T01:22:07;101795.19;;;5.48;62.34
7524;BME280;3803;51.666;7.630;2023-01-27T01:22:28;101803.97;;;5.51;62.29
7524;BME280;3803;51.666;7.630;2023-01-27T01:22:49;101798.78;;;5.51;62.72
7524;BME280;3803;51.666;7.630;2023-01-27T01:23:10;101804.97;;;5.53;62.46
7524;BME280;3803;51.666;7.630;2023-01-27T01:23:32;101790.91;;;5.49;62.48
7524;BME280;3803;51.666;7.630;2023-01-27T01:23:53;101800.88;;;5.56;62.36
7524;BME280;3803;51.666;7.630;2023-01-27T01:24:14;101796.50;;;5.55;62.16
7524;BME280;3803;51.666;7.630;2023-01-27T01:24:34;101799.69;;;5.51;62.23
7524;BME280;3803;51.666;7.630;2023-01-27T01:24:55;101792.91;;;5.53;62.22
7524;BME280;3803;51.666;7.630;2023-01-27T01:25:16;101810.56;;;5.59;62.32
7524;BME280;3803;51.666;7.630;2023-01-27T01:25:37;101813.94;;;5.58;62.24
7524;BME280;3803;51.666;7.630;2023-01-27T01:25:58;101812.53;;;5.63;62.34
7524;BME280;3803;51.666;7.630;2023-01-27T01:26:18;101800.78;;;5.55;61.92
7524;BME280;3803;51.666;7.630;2023-01-27T01:26:39;101806.34;;;5.61;61.96
7524;BME280;3803;51.666;7.630;2023-01-27T01:26:59;101792.72;;;5.50;62.22
7524;BME280;3803;51.666;7.630;2023-01-27T01:27:20;101791.78;;;5.50;62.29
7524;BME280;3803;51.666;7.630;2023-01-27T01:27:43;101799.91;;;5.54;62.18
7524;BME280;3803;51.666;7.630;2023-01-27T01:28:05;101803.38;;;5.55;62.08
7524;BME280;3803;51.666;7.630;2023-01-27T01:28:26;101795.28;;;5.50;62.40
7524;BME280;3803;51.666;7.630;2023-01-27T01:28:47;101802.38;;;5.53;62.14
7524;BME280;3803;51.666;7.630;2023-01-27T01:29:07;101804.34;;;5.57;62.35
7524;BME280;3803;51.666;7.630;2023-01-27T01:29:28;101807.16;;;5.60;62.23
7524;BME280;3803;51.666;7.630;2023-01-27T01:29:48;101801.00;;;5.58;62.21
7524;BME280;3803;51.666;7.630;2023-01-27T01:30:09;101797.09;;;5.51;62.22
7524;BME280;3803;51.666;7.630;2023-01-27T01:30:30;101811.34;;;5.58;62.21
7524;BME280;3803;51.666;7.630;2023-01-27T01:30:52;101795.81;;;5.44;62.18
7524;BME280;3803;51.666;7.630;2023-01-27T01:31:18;101805.53;;;5.48;62.32
7524;BME280;3803;51.666;7.630;2023-01-27T01:31:39;101794.38;;;5.50;62.65
7524;BME280;3803;51.666;7.630;2023-01-27T01:32:00;101802.47;;;5.54;62.34
7524;BME280;3803;51.666;7.630;2023-01-27T01:32:20;101811.34;;;5.58;62.48
7524;BME280;3803;51.666;7.630;2023-01-27T01:32:41;101808.94;;;5.61;62.16
7524;BME280;3803;51.666;7.630;2023-01-27T01:33:02;101803.78;;;5.61;62.42
7524;BME280;3803;51.666;7.630;2023-01-27T01:33:23;101803.66;;;5.59;62.01
7524;BME280;3803;51.666;7.630;2023-01-27T01:33:44;101815.13;;;5.63;62.37
7524;BME280;3803;51.666;7.630;2023-01-27T01:34:05;101810.56;;;5.59;62.10
7524;BME280;3803;51.666;7.630;2023-01-27T01:34:27;101808.44;;;5.53;62.36
7524;BME280;3803;51.666;7.630;2023-01-27T01:34:48;101805.94;;;5.41;62.80
7524;BME280;3803;51.666;7.630;2023-01-27T01:35:10;101805.06;;;5.41;62.23
7524;BME280;3803;51.666;7.630;2023-01-27T01:35:31;101804.94;;;5.39;62.72
7524;BME280;3803;51.666;7.630;2023-01-27T01:35:51;101811.22;;;5.43;62.88
7524;BME280;3803;51.666;7.630;2023-01-27T01:36:15;101802.97;;;5.35;62.75
7524;BME280;3803;51.666;7.630;2023-01-27T01:36:36;101814.88;;;5.33;62.94
7524;BME280;3803;51.666;7.630;2023-01-27T01:36:58;101812.00;;;5.28;62.99
7524;BME280;3803;51.666;7.630;2023-01-27T01:37:19;101809.94;;;5.36;63.01
7524;BME280;3803;51.666;7.630;2023-01-27T01:37:40;101806.66;;;5.39;63.18
7524;BME280;3803;51.666;7.630;2023-01-27T01:38:00;101801.56;;;5.40;62.86
7524;BME280;3803;51.666;7.630;2023-01-27T01:38:21;101805.53;;;5.48;62.79
7524;BME280;3803;51.666;7.630;2023-01-27T01:38:42;101815.31;;;5.53;62.60
7524;BME280;3803;51.666;7.630;2023-01-27T01:39:03;101810.25;;;5.54;62.66
7524;BME280;3803;51.666;7.630;2023-01-27T01:39:24;101804.84;;;5.51;62.50
7524;BME280;3803;51.666;7.630;2023-01-27T01:39:44;101801.28;;;5.49;63.05
7524;BME280;3803;51.666;7.630;2023-01-27T01:40:06;101822.41;;;5.55;62.33
7524;BME280;3803;51.666;7.630;2023-01-27T01:40:27;101810.16;;;5.53;62.30
7524;BME280;3803;51.666;7.630;2023-01-27T01:40:48;101799.50;;;5.48;62.77
7524;BME280;3803;51.666;7.630;2023-01-27T01:41:12;101810.94;;;5.52;62.36
7524;BME280;3803;51.666;7.630;2023-01-27T01:41:33;101803.97;;;5.51;62.40
7524;BME280;3803;51.666;7.630;2023-01-27T01:41:54;101820.00;;;5.58;62.68
7524;BME280;3803;51.666;7.630;2023-01-27T01:42:14;101817.31;;;5.57;62.43
7524;BME280;3803;51.666;7.630;2023-01-27T01:44:43;101816.41;;;5.56;62.57
7524;BME280;3803;51.666;7.630;2023-01-27T01:45:55;101819.88;;;5.57;62.32
7524;BME280;3803;51.666;7.630;2023-01-27T01:46:16;101825.28;;;5.60;62.70
7524;BME280;3803;51.666;7.630;2023-01-27T01:46:39;101818.09;;;5.56;62.85
7524;BME280;3803;51.666;7.630;2023-01-27T01:47:02;101816.31;;;5.55;62.46
7524;BME280;3803;51.666;7.630;2023-01-27T01:47:23;101825.28;;;5.60;62.31
7524;BME280;3803;51.666;7.630;2023-01-27T01:47:44;101817.09;;;5.54;62.75
7524;BME280;3803;51.666;7.630;2023-01-27T01:48:53;101826.97;;;5.59;62.61
7524;BME280;3803;51.666;7.630;2023-01-27T01:49:19;101833.06;;;5.60;62.77
7524;BME280;3803;51.666;7.630;2023-01-27T01:49:40;101820.50;;;5.53;62.62
7524;BME280;3803;51.666;7.630;2023-01-27T01:50:02;101817.69;;;5.50;62.88
7524;BME280;3803;51.666;7.630;2023-01-27T01:50:23;101810.66;;;5.47;62.68
7524;BME280;3803;51.666;7.630;2023-01-27T01:50:49;101829.56;;;5.59;62.78
7524;BME280;3803;51.666;7.630;2023-01-27T01:51:15;101818.41;;;5.47;62.72
7524;BME280;3803;51.666;7.630;2023-01-27T01:51:40;101808.94;;;5.47;63.20
7524;BME280;3803;51.666;7.630;2023-01-27T01:52:11;101816.00;;;5.50;62.82
7524;BME280;3803;51.666;7.630;2023-01-27T01:52:33;101808.25;;;5.50;62.97
7524;BME280;3803;51.666;7.630;2023-01-27T01:52:54;101819.88;;;5.57;62.72
7524;BME280;3803;51.666;7.630;2023-01-27T01:53:15;101817.00;;;5.52;62.90
7524;BME280;3803;51.666;7.630;2023-01-27T01:53:40;101812.03;;;5.55;62.75
7524;BME280;3803;51.666;7.630;2023-01-27T01:54:16;101817.91;;;5.53;62.68
7524;BME280;3803;51.666;7.630;2023-01-27T01:54:42;101816.00;;;5.50;62.94
7524;BME280;3803;51.666;7.630;2023-01-27T01:55:04;101816.31;;;5.55;62.88
7524;BME280;3803;51.666;7.630;2023-01-27T01:55:26;101814.34;;;5.51;62.91
7524;BME280;3803;51.666;7.630;2023-01-27T01:55:47;101809.91;;;5.50;62.60
7524;BME280;3803;51.666;7.630;2023-01-27T01:56:13;101819.69;;;5.54;62.92
7524;BME280;3803;51.666;7.630;2023-01-27T01:57:13;101813.41;;;5.50;63.04
7524;BME280;3803;51.666;7.630;2023-01-27T01:57:36;101812.50;;;5.50;63.19
7524;BME280;3803;51.666;7.630;2023-01-27T01:58:06;101817.91;;;5.53;62.96
7524;BME280;3803;51.666;7.630;2023-01-27T01:58:28;101813.31;;;5.48;62.83
7524;BME280;3803;51.666;7.630;2023-01-27T01:58:52;101810.72;;;5.48;62.86
7524;BME280;3803;51.666;7.630;2023-01-27T01:59:22;101813.13;;;5.45;62.76
7524;BME280;3803;51.666;7.630;2023-01-27T01:59:56;101813.41;;;5.50;63.03
7524;BME280;3803;51.666;7.630;2023-01-27T02:00:18;101823.59;;;5.47;62.83
7524;BME280;3803;51.666;7.630;2023-01-27T02:00:40;101812.31;;;5.46;63.07
7524;BME280;3803;51.666;7.630;2023-01-27T02:01:03;101806.97;;;5.43;63.14
7524;BME280;3803;51.666;7.630;2023-01-27T02:01:24;101818.41;;;5.47;62.83
7524;BME280;3803;51.666;7.630;2023-01-27T02:01:45;101804.44;;;5.45;62.85
7524;BME280;3803;51.666;7.630;2023-01-27T02:02:09;101812.50;;;5.50;63.15
7524;BME280;3803;51.666;7.630;2023-01-27T02:02:32;101819.59;;;5.52;63.31
7524;BME280;3803;51.666;7.630;2023-01-27T02:02:53;101819.50;;;5.51;62.83
7524;BME280;3803;51.666;7.630;2023-01-27T02:03:24;101812.59;;;5.38;63.35
7524;BME280;3803;51.666;7.630;2023-01-27T02:03:52;101809.44;;;5.42;63.35
7524;BME280;3803;51.666;7.630;2023-01-27T02:04:18;101817.31;;;5.43;63.16
7524;BME280;3803;51.666;7.630;2023-01-27T02:04:48;101830.06;;;5.54;63.44
7524;BME280;3803;51.666;7.630;2023-01-27T02:05:53;101809.63;;;5.45;63.38
7524;BME280;3803;51.666;7.630;2023-01-27T02:06:15;101807.84;;;5.44;63.29
7524;BME280;3803;51.666;7.630;2023-01-27T02:06:42;101809.84;;;5.48;63.29
7524;BME280;3803;51.666;7.630;2023-01-27T02:07:19;101826.66;;;5.55;63.31
7524;BME280;3803;51.666;7.630;2023-01-27T02:07:48;101811.34;;;5.44;63.04
7524;BME280;3803;51.666;7.630;2023-01-27T02:08:23;101828.28;;;5.53;63.04
7524;BME280;3803;51.666;7.630;2023-01-27T02:08:47;101821.88;;;5.47;63.29
7524;BME280;3803;51.666;7.630;2023-01-27T02:09:08;101826.06;;;5.45;63.17
7524;BME280;3803;51.666;7.630;2023-01-27T02:09:30;101811.34;;;5.44;63.38
7524;BME280;3803;51.666;7.630;2023-01-27T02:09:50;101822.00;;;5.49;62.86